Time;durP1;ratioP1;P1;durP2;ratioP2;P2;SDS_P1;SDS_P2;PMS_P1;PMS_P2;Temp;Humidity;BMP_temperature;BMP_pressure;BME280_temperature;BME280_humidity;BME280_pressure;Samples;Min_cycle;Max_cycle;Signal;HPM_P1;HPM_P2
2022/01/24 00:00:18;;;;;;;;;18.50;11.00;;;;;-5.20;80.70;101188.06;6311877;20;2806524;-38
2022/01/24 00:02:46;;;;;;;;;20.00;16.00;;;;;-5.55;79.10;101185.38;6279298;20;2809658;-39
2022/01/24 00:05:17;;;;;;;;;25.60;19.80;;;;;-5.29;78.64;101179.97;6300644;20;2837788;-39
2022/01/24 00:07:45;;;;;;;;;20.00;12.00;;;;;-5.20;78.59;101179.31;6283661;20;2790887;-40
2022/01/24 00:10:18;;;;;;;;;36.50;33.50;;;;;-5.12;78.41;101178.66;6311097;20;2510732;-43
2022/01/24 00:13:21;;;;;;;;;19.00;15.67;;;;;-5.25;78.72;101179.19;6282945;20;2823330;-41
2022/01/24 00:26:38;;;;;;;;;18.60;16.80;;;;;-5.22;78.63;101194.09;6336501;20;2824301;-38
2022/01/24 00:26:53;;;;;;;;;19.33;13.33;;;;;-5.44;78.68;101203.09;6322738;20;1837821;-38
2022/01/24 00:29:26;;;;;;;;;19.00;15.00;;;;;-5.73;78.28;101203.16;6304381;20;1839960;-39
2022/01/24 00:31:57;;;;;;;;;20.83;16.17;;;;;-5.61;78.53;101205.22;6354540;20;1838815;-39
2022/01/24 00:34:27;;;;;;;;;28.60;18.00;;;;;-5.69;78.60;101204.13;6317126;20;3589881;-39
2022/01/24 00:36:58;;;;;;;;;30.00;23.00;;;;;-5.80;78.86;101207.31;6311564;20;2843014;-38
2022/01/24 00:39:27;;;;;;;;;20.67;17.33;;;;;-5.90;79.28;101207.00;6318659;20;3558621;-38
2022/01/24 00:42:24;;;;;;;;;25.67;19.00;;;;;-6.11;80.10;101217.72;6316723;20;3576459;-38
2022/01/24 00:47:49;;;;;;;;;25.67;19.33;;;;;-6.15;80.81;101222.00;6342131;20;2851543;-38
2022/01/24 00:53:17;;;;;;;;;36.33;24.33;;;;;-6.29;81.16;101223.25;6283929;20;3587718;-38
2022/01/24 00:55:49;;;;;;;;;36.00;24.00;;;;;-6.08;80.84;101225.66;6339285;20;2855453;-38
2022/01/24 00:58:17;;;;;;;;;40.33;28.00;;;;;-6.10;80.75;101228.25;6287003;20;3607544;-38
2022/01/24 01:00:46;;;;;;;;;28.67;20.33;;;;;-6.46;82.15;101230.59;6284822;20;3578346;-38
2022/01/24 01:03:14;;;;;;;;;33.50;23.00;;;;;-6.47;83.00;101223.59;6316120;20;2851343;-39
2022/01/24 01:19:53;;;;;;;;;40.33;28.67;;;;;-7.84;86.18;101216.25;6280103;20;3605456;-41
2022/01/24 01:22:21;;;;;;;;;26.33;24.00;;;;;-7.57;86.01;101218.97;6314948;20;3579408;-38
2022/01/24 01:24:54;;;;;;;;;35.67;23.00;;;;;-8.05;86.28;101216.31;6336545;20;2858749;-38
2022/01/24 01:27:29;;;;;;;;;33.33;24.67;;;;;-8.17;87.87;101216.72;6282739;20;3604480;-39
2022/01/24 01:30:06;;;;;;;;;33.33;26.33;;;;;-7.98;87.66;101222.63;6283952;20;2842114;-38
2022/01/24 01:36:07;;;;;;;;;32.33;23.33;;;;;-8.16;87.55;101225.47;6282424;20;3585944;-38
2022/01/24 01:38:36;;;;;;;;;29.17;22.17;;;;;-8.12;89.09;101234.25;6303657;20;2851460;-38
2022/01/24 01:52:41;;;;;;;;;47.33;34.67;;;;;-7.81;86.72;101216.34;6280879;20;2883604;-38
2022/01/24 01:57:38;;;;;;;;;37.33;32.33;;;;;-7.17;86.24;101228.22;6283648;20;3606513;-38
2022/01/24 02:00:10;;;;;;;;;38.33;30.67;;;;;-7.08;86.31;101217.22;6279654;20;3606574;-38
2022/01/24 02:02:41;;;;;;;;;36.00;27.00;;;;;-7.84;86.95;101213.63;6314995;20;3593610;-38
2022/01/24 02:05:10;;;;;;;;;43.67;33.33;;;;;-8.02;88.03;101210.34;6283209;20;3627327;-38
2022/01/24 02:07:51;;;;;;;;;43.00;30.00;;;;;-8.17;89.04;101206.31;6285673;20;3621047;-38
2022/01/24 02:10:22;;;;;;;;;39.00;33.50;;;;;-8.12;89.55;101205.59;6281787;20;2866907;-38
2022/01/24 02:12:54;;;;;;;;;28.67;25.67;;;;;-8.07;89.03;101198.84;6284777;20;3577313;-39
2022/01/24 02:21:27;;;;;;;;;30.00;25.00;;;;;-6.98;86.18;101190.56;6280540;20;3590047;-38
2022/01/24 02:23:59;;;;;;;;;34.00;27.67;;;;;-7.03;86.19;101192.13;6315626;20;3586710;-38
2022/01/24 02:26:28;;;;;;;;;37.67;21.00;;;;;-7.16;86.09;101200.38;6281798;20;3615890;-38
2022/01/24 02:29:10;;;;;;;;;33.67;26.33;;;;;-7.39;86.89;101200.50;6283301;20;3585097;-49
2022/01/24 02:31:49;;;;;;;;;54.00;35.00;;;;;-7.57;87.22;101210.28;6282655;20;3641044;-40
2022/01/24 02:34:35;;;;;;;;;39.00;26.00;;;;;-7.51;86.90;101218.31;6313355;20;2875276;-38
2022/01/24 02:37:13;;;;;;;;;45.50;33.00;;;;;-7.61;87.58;101221.41;6283298;20;2880622;-38
2022/01/24 02:39:54;;;;;;;;;50.00;28.00;;;;;-8.04;88.17;101217.19;6282155;20;3627491;-38
2022/01/24 02:53:32;;;;;;;;;51.50;38.00;;;;;-7.57;88.56;101229.41;6282670;20;2880511;-38
2022/01/24 02:56:03;;;;;;;;;24.80;18.40;;;;;-7.23;86.95;101232.34;6283520;20;3574234;-38
2022/01/24 02:58:33;;;;;;;;;33.00;27.67;;;;;-7.24;86.84;101233.16;6315823;20;3601322;-38
2022/01/24 03:01:07;;;;;;;;;45.00;34.00;;;;;-8.08;88.35;101224.03;6279975;20;2885674;-38
2022/01/24 03:03:38;;;;;;;;;39.00;33.33;;;;;-8.48;90.22;101234.63;6312395;20;3605482;-37
2022/01/24 03:06:07;;;;;;;;;54.50;35.25;;;;;-8.37;91.01;101238.53;6282926;20;3645614;-38
2022/01/24 03:08:39;;;;;;;;;66.50;48.50;;;;;-8.58;91.16;101235.06;6316234;20;2865914;-37
2022/01/24 03:11:07;;;;;;;;;69.00;55.00;;;;;-8.02;90.56;101226.84;6279507;20;2510707;-37
2022/01/24 03:13:36;;;;;;;;;68.60;52.80;;;;;-7.73;88.56;101240.09;6278510;20;3621072;-37
2022/01/24 03:16:08;;;;;;;;;75.00;49.40;;;;;-8.22;89.12;101233.88;6279030;20;3646197;-37
2022/01/24 03:18:37;;;;;;;;;58.00;40.40;;;;;-8.44;89.55;101250.44;6280907;20;3633699;-37
2022/01/24 03:21:07;;;;;;;;;106.67;66.83;;;;;-8.38;89.88;101253.22;6278969;20;4445027;-37
2022/01/24 03:23:36;;;;;;;;;73.60;50.80;;;;;-7.84;89.62;101250.13;6315263;20;3623179;-38
2022/01/24 03:26:04;;;;;;;;;63.00;46.33;;;;;-7.90;89.18;101256.81;6281195;20;2894058;-38
2022/01/24 03:28:33;;;;;;;;;77.00;47.00;;;;;-8.13;89.44;101258.56;6315485;20;2883612;-37
2022/01/24 03:31:01;;;;;;;;;61.00;45.00;;;;;-8.24;89.91;101264.22;6278504;20;2502345;-39
2022/01/24 03:33:31;;;;;;;;;65.00;43.00;;;;;-8.24;89.36;101260.72;6283246;20;3661329;-38
2022/01/24 03:35:59;;;;;;;;;63.50;41.00;;;;;-8.54;90.22;101265.63;6310198;20;2502480;-37
2022/01/24 03:38:26;;;;;;;;;61.00;48.00;;;;;-8.17;89.97;101265.34;6279385;20;2861756;-38
2022/01/24 03:40:55;;;;;;;;;68.80;47.40;;;;;-8.44;90.67;101259.97;6278003;20;3627343;-38
2022/01/24 03:43:24;;;;;;;;;70.67;44.33;;;;;-8.51;90.59;101266.63;6282306;20;3620075;-38
2022/01/24 03:48:48;;;;;;;;;47.20;30.40;;;;;-8.85;90.92;101272.13;6280623;20;3637883;-37
2022/01/24 03:51:19;;;;;;;;;40.20;33.40;;;;;-8.43;88.92;101269.53;6276438;20;3616278;-38
2022/01/24 03:53:50;;;;;;;;;47.00;30.33;;;;;-8.74;90.19;101268.31;6280944;20;3642092;-38
2022/01/24 03:56:19;;;;;;;;;53.67;31.33;;;;;-8.76;90.42;101275.16;6282860;20;3626689;-38
2022/01/24 03:58:47;;;;;;;;;42.67;27.67;;;;;-8.46;90.36;101269.41;6282214;20;3620098;-37
2022/01/24 04:01:17;;;;;;;;;36.60;32.20;;;;;-7.89;88.36;101275.13;6284601;20;3602418;-37
2022/01/24 04:03:46;;;;;;;;;35.33;26.33;;;;;-7.82;87.95;101266.72;6284934;20;2853454;-37
2022/01/24 04:06:15;;;;;;;;;53.67;36.33;;;;;-7.81;87.49;101265.88;6319282;20;3641923;-38
2022/01/24 04:08:43;;;;;;;;;37.00;28.00;;;;;-7.88;87.56;101266.47;6287450;20;2857555;-37
2022/01/24 04:11:13;;;;;;;;;45.67;34.00;;;;;-8.26;88.34;101273.69;6288306;20;3609575;-38
2022/01/24 04:13:44;;;;;;;;;47.50;42.50;;;;;-8.43;89.23;101266.94;6283442;20;2502392;-38
2022/01/24 04:16:30;;;;;;;;;39.00;39.00;;;;;-8.64;89.99;101273.03;6286490;20;2866883;-38
2022/01/24 04:21:18;;;;;;;;;53.00;42.50;;;;;-8.66;90.64;101272.09;6286116;20;2872504;-39
2022/01/24 04:21:54;;;;;;;;;45.00;37.50;;;;;-8.86;90.47;101276.47;6284209;20;2866916;-38
2022/01/24 04:24:24;;;;;;;;;51.50;39.50;;;;;-8.92;91.23;101288.34;6283999;20;2880483;-38
2022/01/24 04:26:53;;;;;;;;;70.20;48.60;;;;;-8.78;91.81;101291.53;6285879;20;3648248;-38
2022/01/24 04:29:22;;;;;;;;;69.50;48.00;;;;;-8.77;91.45;101288.97;6286590;20;2877317;-38
2022/01/24 04:31:51;;;;;;;;;56.00;45.00;;;;;-8.86;91.66;101278.19;6283676;20;2883708;-37
2022/01/24 04:34:18;;;;;;;;;64.00;52.00;;;;;-8.79;91.38;101289.72;6283695;20;2866921;-38
2022/01/24 04:36:48;;;;;;;;;72.80;49.00;;;;;-8.85;91.97;101290.34;6283385;20;3621099;-38
2022/01/24 04:39:17;;;;;;;;;60.40;47.80;;;;;-9.03;92.31;101290.44;6284771;20;3633624;-38
2022/01/24 04:41:49;;;;;;;;;59.00;48.00;;;;;-9.40;92.29;101295.75;6281345;20;2560873;-38
2022/01/24 04:47:18;;;;;;;;;110.67;77.00;;;;;-8.85;90.16;101311.19;6286870;20;3680413;-38
2022/01/24 04:53:02;;;;;;;;;84.40;64.80;;;;;-8.79;89.25;101315.75;6280574;20;3651820;-37
2022/01/24 04:55:31;;;;;;;;;65.67;49.00;;;;;-9.36;89.86;101311.56;6285624;20;3605426;-38
2022/01/24 04:58:00;;;;;;;;;39.67;33.00;;;;;-9.10;89.92;101314.44;6285526;20;3610500;-39
2022/01/24 05:00:29;;;;;;;;;37.67;29.33;;;;;-8.76;89.97;101322.00;6284306;20;3602554;-38
2022/01/24 05:02:57;;;;;;;;;53.00;38.50;;;;;-8.59;88.92;101329.63;6314262;20;2875854;-38
2022/01/24 05:05:27;;;;;;;;;45.50;39.00;;;;;-8.99;89.26;101322.72;6280719;20;2504443;-38
2022/01/24 05:07:59;;;;;;;;;49.33;33.00;;;;;-9.21;89.49;101315.69;6286802;20;3632613;-38
2022/01/24 05:10:35;;;;;;;;;63.50;45.50;;;;;-9.67;91.24;101318.78;6315923;20;2889983;-37
2022/01/24 05:24:01;;;;;;;;;48.75;35.00;;;;;-8.87;90.55;101338.88;6286017;20;3637868;-48
2022/01/24 05:26:29;;;;;;;;;47.00;36.50;;;;;-9.34;91.50;101341.13;6314353;20;2502514;-48
2022/01/24 05:28:58;;;;;;;;;49.80;33.80;;;;;-9.34;92.63;101345.47;6285892;20;3647166;-37
2022/01/24 05:31:25;;;;;;;;;48.50;36.50;;;;;-8.77;91.61;101348.84;6283604;20;2879487;-38
2022/01/24 05:33:54;;;;;;;;;44.00;37.67;;;;;-8.80;90.61;101351.31;6285517;20;3616901;-37
2022/01/24 05:36:23;;;;;;;;;34.67;28.67;;;;;-9.15;90.74;101342.84;6285450;20;3601368;-37
2022/01/24 05:38:54;;;;;;;;;40.50;31.50;;;;;-9.48;92.07;101354.31;6304043;20;3628373;-37
2022/01/24 05:41:23;;;;;;;;;40.33;28.33;;;;;-9.13;92.26;101349.03;6284942;20;3611708;-38
2022/01/24 05:43:52;;;;;;;;;47.67;33.00;;;;;-9.76;92.76;101366.03;6313652;20;3626649;-37
2022/01/24 05:46:21;;;;;;;;;65.25;44.50;;;;;-9.14;92.47;101365.44;6285106;20;4405419;-38
2022/01/24 05:48:52;;;;;;;;;63.00;45.20;;;;;-9.74;91.92;101361.78;6311920;20;3651263;-37
2022/01/24 05:51:25;;;;;;;;;45.67;21.33;;;;;-9.72;92.31;101371.44;6316133;20;1837955;-38
2022/01/24 05:53:53;;;;;;;;;78.00;55.00;;;;;-9.44;92.34;101371.84;6278690;20;2505466;-39
2022/01/24 05:56:21;;;;;;;;;70.00;50.00;;;;;-9.43;92.62;101368.41;6281571;20;2893018;-47
2022/01/24 05:58:50;;;;;;;;;91.00;64.00;;;;;-9.14;92.23;101364.53;6282510;20;2922253;-48
2022/01/24 06:01:19;;;;;;;;;78.00;57.00;;;;;-9.27;92.04;101373.50;6314395;20;2874212;-47
2022/01/24 06:03:49;;;;;;;;;88.33;62.67;;;;;-9.00;90.69;101368.66;6281810;20;3666914;-49
2022/01/24 06:06:19;;;;;;;;;79.20;60.20;;;;;-9.09;90.69;101378.66;6315475;20;3648314;-48
2022/01/24 06:08:48;;;;;;;;;77.40;57.40;;;;;-9.37;90.66;101377.41;6283895;20;3637769;-48
2022/01/24 06:11:17;;;;;;;;;73.00;52.00;;;;;-8.90;91.05;101375.16;6281295;20;2500298;-49
2022/01/24 06:13:50;;;;;;;;;90.60;69.40;;;;;-9.37;91.75;101386.91;6281988;20;3653403;-48
2022/01/24 06:16:19;;;;;;;;;68.60;51.00;;;;;-8.99;92.02;101383.44;6285854;20;3628512;-47
2022/01/24 06:18:48;;;;;;;;;84.67;60.33;;;;;-9.03;92.22;101383.22;6282194;20;2892987;-49
2022/01/24 06:21:17;;;;;;;;;74.20;51.20;;;;;-8.88;91.33;101391.72;6314238;20;3643103;-37
2022/01/24 06:23:46;;;;;;;;;78.40;54.60;;;;;-9.21;91.70;101385.91;6282829;20;3647188;-37
2022/01/24 06:26:15;;;;;;;;;65.20;48.00;;;;;-8.91;91.11;101389.00;6282019;20;3613763;-37
2022/01/24 06:28:43;;;;;;;;;62.80;48.80;;;;;-8.63;90.31;101396.31;6284570;20;3613756;-37
2022/01/24 06:31:12;;;;;;;;;65.20;50.60;;;;;-8.88;90.53;101399.53;6280593;20;3606673;-37
2022/01/24 06:33:41;;;;;;;;;69.20;49.20;;;;;-8.59;90.23;101402.53;6278876;20;3630448;-37
2022/01/24 06:36:10;;;;;;;;;69.20;49.40;;;;;-9.03;90.58;101399.72;6281938;20;3614837;-38
2022/01/24 06:38:38;;;;;;;;;57.50;48.00;;;;;-8.48;90.61;101414.28;6279002;20;2883612;-37
2022/01/24 06:41:08;;;;;;;;;82.33;59.33;;;;;-8.54;90.42;101412.31;6283994;20;2904963;-37
2022/01/24 06:43:36;;;;;;;;;73.50;54.00;;;;;-8.66;90.39;101419.56;6311905;20;2485791;-37
2022/01/24 06:46:05;;;;;;;;;85.60;62.40;;;;;-8.88;90.86;101417.75;6283313;20;3646074;-37
2022/01/24 06:48:33;;;;;;;;;67.00;49.00;;;;;-8.97;91.44;101430.38;6284178;20;2898165;-37
2022/01/24 06:51:04;;;;;;;;;89.40;63.40;;;;;-8.59;90.97;101429.44;6283653;20;3659644;-49
2022/01/24 06:53:33;;;;;;;;;80.80;61.00;;;;;-8.32;89.59;101436.63;6280076;20;3641949;-49
2022/01/24 06:56:02;;;;;;;;;79.50;50.50;;;;;-8.49;89.37;101436.84;6284008;20;2883696;-37
2022/01/24 06:58:34;;;;;;;;;88.00;61.67;;;;;-8.14;89.05;101442.63;6282935;20;3667954;-38
2022/01/24 07:01:04;;;;;;;;;81.00;53.20;;;;;-8.06;87.14;101450.78;6313059;20;3641286;-39
2022/01/24 07:03:34;;;;;;;;;82.80;60.00;;;;;-7.79;86.10;101445.84;6280993;20;3654470;-38
2022/01/24 07:06:03;;;;;;;;;74.00;56.00;;;;;-8.46;86.95;101446.50;6277167;20;2505540;-38
2022/01/24 07:08:32;;;;;;;;;84.33;60.67;;;;;-8.43;88.17;101451.84;6284943;20;2905705;-38
2022/01/24 07:11:01;;;;;;;;;94.00;65.33;;;;;-7.96;87.01;101458.16;6315683;20;3655391;-39
2022/01/24 07:13:30;;;;;;;;;75.00;51.60;;;;;-7.75;86.70;101466.84;6312758;20;3641914;-39
2022/01/24 07:16:03;;;;;;;;;78.00;56.00;;;;;-7.62;86.32;101469.97;6282616;20;3634634;-39
2022/01/24 07:21:06;;;;;;;;;93.00;66.00;;;;;-7.25;85.11;101474.94;6282476;20;3671050;-38
2022/01/24 07:23:35;;;;;;;;;102.33;72.67;;;;;-7.46;85.40;101477.59;6309615;20;3680572;-38
2022/01/24 07:26:05;;;;;;;;;93.17;60.33;;;;;-7.10;84.11;101482.50;6311718;20;3665851;-38
2022/01/24 07:28:35;;;;;;;;;84.67;63.00;;;;;-7.13;84.64;101485.00;6314390;20;2908687;-39
2022/01/24 07:31:03;;;;;;;;;81.00;60.50;;;;;-7.40;85.27;101488.25;6308879;20;2502331;-38
2022/01/24 07:33:33;;;;;;;;;84.50;57.50;;;;;-7.17;85.46;101489.19;6281262;20;2883717;-37
2022/01/24 07:36:02;;;;;;;;;88.40;66.80;;;;;-7.00;85.03;101492.47;6276567;20;3651309;-38
2022/01/24 07:38:30;;;;;;;;;78.00;56.80;;;;;-6.55;82.98;101487.19;6278892;20;3645097;-38
2022/01/24 07:41:01;;;;;;;;;100.67;73.00;;;;;-6.34;82.30;101491.41;6277642;20;3666968;-37
2022/01/24 07:43:30;;;;;;;;;94.50;69.50;;;;;-6.63;82.76;101493.84;6312393;20;2903368;-39
2022/01/24 07:45:59;;;;;;;;;92.80;64.60;;;;;-6.44;82.16;101500.66;6280005;20;3661495;-37
2022/01/24 07:48:27;;;;;;;;;73.00;61.00;;;;;-6.44;81.90;101496.31;6279195;20;2502375;-38
2022/01/24 07:50:58;;;;;;;;;81.50;58.17;;;;;-6.07;81.17;101502.84;6304064;20;3639843;-37
2022/01/24 07:53:26;;;;;;;;;78.00;60.00;;;;;-5.98;79.75;101497.94;6279109;20;2502385;-37
2022/01/24 07:56:11;;;;;;;;;81.67;57.67;;;;;-5.71;79.32;101499.69;6281074;20;2892055;-37
2022/01/24 07:58:42;;;;;;;;;72.40;54.00;;;;;-5.46;78.65;101503.09;6311665;20;3612760;-37
2022/01/24 08:01:14;;;;;;;;;81.67;59.33;;;;;-5.31;77.69;101509.72;6277884;20;2894066;-37
2022/01/24 08:03:43;;;;;;;;;78.00;57.00;;;;;-5.40;77.20;101519.00;6307011;20;2502737;-37
2022/01/24 08:06:13;;;;;;;;;70.67;48.67;;;;;-5.35;76.96;101515.69;6283457;20;2893105;-38
2022/01/24 08:08:43;;;;;;;;;89.33;65.33;;;;;-5.23;76.91;101512.59;6311925;20;2912890;-37
2022/01/24 08:11:12;;;;;;;;;78.00;61.00;;;;;-4.80;75.84;101513.03;6309415;20;2501304;-38
2022/01/24 08:13:40;;;;;;;;;89.50;64.00;;;;;-4.82;76.02;101515.59;6275926;20;2502420;-40
2022/01/24 08:16:10;;;;;;;;;85.33;63.33;;;;;-4.42;75.72;101516.81;6281448;20;2901311;-38
2022/01/24 08:18:39;;;;;;;;;69.50;54.00;;;;;-4.33;76.47;101518.78;6313400;20;2875280;-38
2022/01/24 08:21:07;;;;;;;;;67.67;49.67;;;;;-4.18;76.25;101520.97;6279806;20;2890905;-38
2022/01/24 08:23:37;;;;;;;;;68.00;52.50;;;;;-3.92;75.60;101519.03;6309013;20;2874336;-39
2022/01/24 08:26:05;;;;;;;;;60.50;48.00;;;;;-3.85;75.81;101526.22;6278451;20;2470093;-37
2022/01/24 08:28:33;;;;;;;;;75.00;57.50;;;;;-3.82;75.83;101516.72;6279617;20;2500215;-38
2022/01/24 08:31:01;;;;;;;;;80.00;62.50;;;;;-3.54;74.95;101522.66;6279329;20;2500275;-39
2022/01/24 08:33:30;;;;;;;;;88.67;66.67;;;;;-3.61;75.28;101525.97;6279387;20;3644126;-39
2022/01/24 08:36:01;;;;;;;;;92.33;64.33;;;;;-3.32;75.35;101529.34;6313077;20;3658678;-39
2022/01/24 08:38:34;;;;;;;;;61.00;45.50;;;;;-3.22;74.31;101519.94;6312668;20;2881640;-38
2022/01/24 08:41:13;;;;;;;;;77.50;54.00;;;;;-2.97;73.28;101524.94;6280722;20;2878396;-39
2022/01/24 08:46:19;;;;;;;;;61.00;46.00;;;;;-2.69;72.67;101517.66;6318607;20;2876335;-38
2022/01/24 08:48:48;;;;;;;;;43.00;35.50;;;;;-2.62;71.40;101514.31;6282930;20;2502379;-38
2022/01/24 08:51:18;;;;;;;;;47.50;37.50;;;;;-2.66;72.00;101518.63;6290449;20;2857559;-38
2022/01/24 08:54:08;;;;;;;;;41.50;32.00;;;;;-2.91;72.34;101525.06;6282793;20;2500268;-39
2022/01/24 08:56:37;;;;;;;;;64.33;51.00;;;;;-2.43;70.93;101520.84;6290234;20;3600260;-39
2022/01/24 08:59:06;;;;;;;;;36.33;30.00;;;;;-2.54;69.90;101514.50;6289514;20;3598270;-42
2022/01/24 09:01:35;;;;;;;;;51.50;35.50;;;;;-2.22;68.79;101516.03;6288657;20;2865856;-43
2022/01/24 09:04:05;;;;;;;;;23.33;18.33;;;;;-2.48;67.53;101517.25;6288361;20;3568967;-42
2022/01/24 09:06:33;;;;;;;;;34.67;26.00;;;;;-2.39;67.57;101522.72;6321533;20;3575186;-42
2022/01/24 09:09:04;;;;;;;;;34.00;25.00;;;;;-2.23;67.71;101526.53;6320661;20;2848136;-43
2022/01/24 09:11:37;;;;;;;;;27.80;21.80;;;;;-2.31;66.32;101529.00;6314302;20;2828348;-42
2022/01/24 09:14:09;;;;;;;;;29.00;18.50;;;;;-2.08;65.41;101529.47;6312798;20;2840957;-42
2022/01/24 09:16:38;;;;;;;;;27.67;20.00;;;;;-2.25;66.17;101533.50;6319873;20;3564773;-45
2022/01/24 09:19:07;;;;;;;;;23.33;17.00;;;;;-2.55;64.23;101542.53;6318272;20;3568944;-42
2022/01/24 09:21:35;;;;;;;;;16.50;14.00;;;;;-2.14;65.00;101537.22;6318765;20;2803354;-42
2022/01/24 09:24:04;;;;;;;;;14.00;10.00;;;;;-2.28;64.48;101541.34;6289859;20;2799302;-42
2022/01/24 09:26:34;;;;;;;;;23.00;17.20;;;;;-1.91;64.53;101540.31;6311300;20;2833802;-43
2022/01/24 09:29:05;;;;;;;;;26.17;20.17;;;;;-1.75;63.80;101538.88;6312461;20;2834620;-41
2022/01/24 09:31:34;;;;;;;;;19.67;17.67;;;;;-1.88;65.93;101537.75;6320473;20;3559646;-41
2022/01/24 09:34:03;;;;;;;;;18.00;14.67;;;;;-1.91;64.41;101547.34;6319885;20;2809705;-42
2022/01/24 09:36:33;;;;;;;;;18.40;12.40;;;;;-1.83;62.55;101540.47;6346781;20;2808601;-41
2022/01/24 09:39:03;;;;;;;;;19.40;17.40;;;;;-1.57;63.62;101543.59;6315590;20;2833627;-42
2022/01/24 09:41:31;;;;;;;;;16.50;16.50;;;;;-1.64;61.92;101539.06;6288561;20;2802410;-43
2022/01/24 09:44:16;;;;;;;;;28.00;24.00;;;;;-1.66;62.49;101544.31;6289344;20;2831466;-42
2022/01/24 09:46:46;;;;;;;;;16.00;15.67;;;;;-1.54;61.91;101543.63;6287466;20;3552290;-43
2022/01/24 09:49:16;;;;;;;;;26.33;23.67;;;;;-1.97;61.95;101540.22;6320462;20;3568937;-42
2022/01/24 09:51:44;;;;;;;;;40.50;31.00;;;;;-1.46;61.13;101533.25;6317282;20;2500282;-43
2022/01/24 09:54:12;;;;;;;;;31.00;23.00;;;;;-1.80;62.18;101543.16;6283969;20;2842920;-43
2022/01/24 09:56:41;;;;;;;;;25.00;23.00;;;;;-1.93;61.91;101538.53;6286921;20;2823220;-42
2022/01/24 09:59:09;;;;;;;;;25.00;21.00;;;;;-1.56;61.52;101535.69;6287989;20;3575220;-44
2022/01/24 10:01:38;;;;;;;;;14.00;14.00;;;;;-1.72;61.26;101540.66;6319631;20;2804487;-42
2022/01/24 10:04:21;;;;;;;;;32.00;23.00;;;;;-1.46;61.11;101541.13;6319078;20;2832535;-43
2022/01/24 10:07:04;;;;;;;;;28.17;22.50;;;;;-1.38;60.41;101539.53;6310621;20;2834672;-42
2022/01/24 10:09:38;;;;;;;;;40.00;35.50;;;;;-1.25;60.70;101536.22;6319717;20;2860781;-44
2022/01/24 10:17:40;;;;;;;;;34.50;34.50;;;;;-1.23;60.84;101533.63;6319142;20;2860836;-43
2022/01/24 10:20:40;;;;;;;;;21.50;20.50;;;;;-1.68;60.71;101532.88;6289691;20;2823155;-45
2022/01/24 10:23:26;;;;;;;;;49.00;44.33;;;;;-1.18;61.87;101530.22;6310936;20;3598158;-44
2022/01/24 10:26:05;;;;;;;;;23.00;14.00;;;;;-1.42;60.35;101537.69;6283226;20;2816949;-43
2022/01/24 10:28:44;;;;;;;;;41.50;29.50;;;;;-1.02;60.31;101538.38;6289298;20;2875307;-42
2022/01/24 10:31:25;;;;;;;;;24.67;22.33;;;;;-1.39;60.56;101532.50;6287664;20;3545124;-43
2022/01/24 10:34:35;;;;;;;;;18.00;14.00;;;;;-1.50;60.77;101531.41;6316148;20;2794024;-42
2022/01/24 10:36:56;;;;;;;;;26.00;23.00;;;;;-1.11;60.29;101521.53;6289147;20;2826297;-41
2022/01/24 10:39:44;;;;;;;;;31.67;20.33;;;;;-1.19;60.00;101536.31;6287124;20;3577301;-42
2022/01/24 10:45:20;;;;;;;;;34.00;24.50;;;;;-1.51;61.87;101532.28;6283396;20;2856467;-42
2022/01/24 10:47:52;;;;;;;;;78.50;63.00;;;;;-1.19;60.18;101533.69;6282529;20;2500266;-43
2022/01/24 10:50:30;;;;;;;;;75.00;59.00;;;;;-1.36;60.22;101532.53;6284226;20;2500478;-41
2022/01/24 10:53:13;;;;;;;;;29.00;29.00;;;;;-1.00;59.95;101532.25;6285620;20;2500260;-42
2022/01/24 10:55:47;;;;;;;;;39.50;28.50;;;;;-0.81;59.25;101528.13;6288478;20;2868980;-41
2022/01/24 10:58:16;;;;;;;;;60.00;49.50;;;;;-0.56;59.10;101534.63;6286487;20;2500226;-41
2022/01/24 11:00:46;;;;;;;;;27.33;22.00;;;;;-0.57;58.46;101532.88;6286836;20;3575677;-42
2022/01/24 11:03:20;;;;;;;;;25.00;20.00;;;;;-0.92;61.14;101529.72;6319526;20;3557540;-42
2022/01/24 11:05:49;;;;;;;;;22.33;17.00;;;;;-0.49;59.24;101530.34;6317168;20;3569022;-42
2022/01/24 11:08:18;;;;;;;;;32.00;31.00;;;;;-0.30;58.12;101527.06;6315507;20;2500212;-44
2022/01/24 11:10:51;;;;;;;;;21.00;18.00;;;;;-0.72;58.14;101528.25;6286191;20;3545000;-42
2022/01/24 11:13:30;;;;;;;;;27.67;17.00;;;;;-1.08;58.24;101522.44;6317146;20;3576301;-43
2022/01/24 11:16:00;;;;;;;;;42.50;36.00;;;;;-0.37;59.14;101527.88;6315723;20;2500281;-42
2022/01/24 11:18:32;;;;;;;;;16.75;10.25;;;;;-1.23;59.23;101529.25;6302730;20;1834763;-42
2022/01/24 11:21:05;;;;;;;;;24.00;18.00;;;;;-1.15;59.35;101521.47;6314198;20;2826404;-43
2022/01/24 11:23:40;;;;;;;;;65.50;51.50;;;;;-0.41;58.51;101515.47;6282658;20;2871163;-45
2022/01/24 11:26:11;;;;;;;;;41.00;39.00;;;;;-0.44;58.87;101512.81;6280333;20;2500275;-43
2022/01/24 11:28:41;;;;;;;;;56.67;44.67;;;;;-0.45;59.49;101513.66;6285156;20;2876404;-43
2022/01/24 11:31:34;;;;;;;;;78.00;58.50;;;;;-0.43;57.86;101513.69;6315309;20;2876357;-44
2022/01/24 11:34:30;;;;;;;;;50.00;44.50;;;;;-0.94;57.88;101502.44;6283460;20;2860781;-43
2022/01/24 11:37:00;;;;;;;;;32.00;26.00;;;;;-0.85;57.96;101505.22;6285485;20;2835708;-43
2022/01/24 11:39:28;;;;;;;;;27.50;26.50;;;;;-0.44;56.82;101496.97;6282271;20;2500328;-42
2022/01/24 11:41:57;;;;;;;;;43.00;36.00;;;;;-0.35;56.81;101496.19;6285160;20;2500229;-44
2022/01/24 11:44:34;;;;;;;;;39.67;23.67;;;;;-0.65;56.61;101491.44;6282678;20;3615807;-42
2022/01/24 11:47:06;;;;;;;;;30.67;28.67;;;;;-0.44;56.89;101489.06;6282300;20;3580400;-43
2022/01/24 11:49:38;;;;;;;;;31.00;23.33;;;;;-1.06;57.44;101494.34;6282212;20;3568025;-42
2022/01/24 11:52:14;;;;;;;;;38.00;32.00;;;;;-0.52;56.80;101493.38;6282681;20;2498178;-43
2022/01/24 11:57:18;;;;;;;;;18.00;16.50;;;;;-0.37;57.47;101488.28;6317035;20;2824199;-45
2022/01/24 11:59:49;;;;;;;;;25.33;17.00;;;;;-0.33;57.04;101495.34;6285152;20;3579478;-44
2022/01/24 12:02:25;;;;;;;;;37.00;29.00;;;;;-0.02;56.24;101486.03;6317933;20;2851255;-45
2022/01/24 12:05:16;;;;;;;;;24.00;20.00;;;;;0.01;55.19;101495.75;6285892;20;2825213;-41
2022/01/24 12:07:55;;;;;;;;;38.33;23.33;;;;;-0.27;55.72;101484.84;6281761;20;3588715;-42
2022/01/24 12:10:25;;;;;;;;;27.00;24.00;;;;;-0.39;55.99;101484.72;6318192;20;3575267;-42
2022/01/24 12:13:20;;;;;;;;;46.50;37.00;;;;;-0.13;56.16;101471.84;6278330;20;2500226;-42
2022/01/24 12:15:48;;;;;;;;;40.00;32.00;;;;;-0.56;56.18;101470.44;6283822;20;2500229;-42
2022/01/24 12:18:28;;;;;;;;;28.00;22.00;;;;;0.08;55.98;101475.53;6286121;20;3567910;-43
2022/01/24 12:21:16;;;;;;;;;45.00;43.00;;;;;0.01;55.82;101477.25;6286638;20;2839928;-43
2022/01/24 12:24:04;;;;;;;;;37.50;30.50;;;;;0.13;55.30;101473.84;6287612;20;2500276;-42
2022/01/24 12:27:04;;;;;;;;;43.00;29.67;;;;;-0.11;56.12;101470.06;6294355;20;2874205;-44
2022/01/24 12:29:42;;;;;;;;;43.50;34.50;;;;;0.11;55.81;101480.88;6319450;20;2858559;-42
2022/01/24 12:32:26;;;;;;;;;38.00;38.00;;;;;-0.11;55.40;101478.00;6289954;20;2862884;-43
2022/01/24 12:34:55;;;;;;;;;45.50;37.50;;;;;0.07;55.39;101474.66;6290043;20;2876255;-41
2022/01/24 12:37:30;;;;;;;;;41.00;34.00;;;;;0.17;55.21;101476.53;6290630;20;2849201;-42
2022/01/24 12:40:11;;;;;;;;;52.00;38.33;;;;;-0.11;55.13;101469.19;6289857;20;3635689;-42
2022/01/24 12:42:57;;;;;;;;;56.50;44.50;;;;;-0.07;55.82;101471.00;6322148;20;2870157;-44
2022/01/24 12:48:32;;;;;;;;;50.50;40.00;;;;;-0.29;55.19;101462.88;6289145;20;2874266;-44
2022/01/24 12:51:00;;;;;;;;;31.50;21.00;;;;;-0.06;53.96;101467.50;6293248;20;2851338;-44
2022/01/24 12:53:28;;;;;;;;;40.50;37.00;;;;;0.17;54.04;101460.69;6283672;20;2504392;-42
2022/01/24 12:56:08;;;;;;;;;70.50;54.00;;;;;-0.23;54.24;101465.56;6285329;20;2508539;-43
2022/01/24 12:58:48;;;;;;;;;30.00;24.00;;;;;-0.59;54.66;101465.13;6290736;20;3578512;-43